Terminal Aerodrome Forecast
Issued by NWS

Home | Current Version | Previous Version | Text Only | Print | Product List | Glossary On
Versions: 1 2 3 4 5 6 7 8 9 10 11 12 13 14 15 16 17 18 19 20 21 22 23 24
242
FTUS41 KGYX 231120
TAFHIE
TAF
KHIE 231120Z 2312/2412 VRB03KT P6SM FEW025
     FM231500 29007KT P6SM BKN050
      TEMPO 2318/2322 5SM -TSRA BR OVC040CB
     FM232300 VRB03KT P6SM SCT200
     FM240600 00000KT 1/2SM FG BKN001=

USA.gov is the U.S. government's official web portal to all federal, state and local government web resources and services.